createdAt,value
2022-09-26T00:01:20.209Z,2.38
2022-09-26T00:03:47.712Z,2.63
2022-09-26T00:06:16.113Z,2.00
2022-09-26T00:08:42.432Z,2.58
2022-09-26T00:11:09.420Z,4.18
2022-09-26T00:13:37.074Z,2.33
2022-09-26T00:16:04.215Z,2.42
2022-09-26T00:18:30.587Z,2.40
2022-09-26T00:21:23.342Z,3.13
2022-09-26T00:23:49.667Z,2.25
2022-09-26T00:26:17.042Z,2.20
2022-09-26T00:28:43.454Z,2.40
2022-09-26T00:31:11.745Z,2.40
2022-09-26T00:33:38.187Z,2.15
2022-09-26T00:36:05.425Z,2.45
2022-09-26T00:38:31.995Z,2.15
2022-09-26T00:40:58.587Z,2.08
2022-09-26T00:43:36.052Z,2.30
2022-09-26T00:46:09.668Z,2.47
2022-09-26T00:48:37.015Z,2.88
2022-09-26T00:51:04.411Z,2.33
2022-09-26T00:53:37.750Z,2.78
2022-09-26T00:56:06.312Z,2.20
2022-09-26T00:58:35.468Z,2.13
2022-09-26T01:01:02.134Z,1.90
2022-09-26T01:03:29.360Z,2.05
2022-09-26T01:05:55.952Z,2.10
2022-09-26T01:08:25.425Z,2.00
2022-09-26T01:13:18.072Z,1.83
2022-09-26T01:15:44.438Z,2.08
2022-09-26T01:18:11.022Z,2.20
2022-09-26T01:20:55.674Z,2.00
2022-09-26T01:23:31.397Z,2.20
2022-09-26T01:25:57.761Z,1.95
2022-09-26T01:28:50.179Z,1.88
2022-09-26T01:31:21.265Z,1.85
2022-09-26T01:33:51.265Z,1.80
2022-09-26T01:36:22.771Z,2.08
2022-09-26T01:38:52.153Z,2.10
2022-09-26T01:43:54.207Z,2.00
2022-09-26T01:46:35.813Z,1.80
2022-09-26T01:49:23.107Z,1.70
2022-09-26T01:51:54.778Z,2.17
2022-09-26T01:54:31.765Z,2.00
2022-09-26T01:56:58.938Z,1.95
2022-09-26T01:59:30.311Z,1.88
2022-09-26T02:01:59.755Z,1.70
2022-09-26T02:06:53.739Z,1.77
2022-09-26T02:09:24.279Z,1.70
2022-09-26T02:11:53.637Z,1.52
2022-09-26T02:14:22.657Z,1.55
2022-09-26T02:16:54.631Z,1.38
2022-09-26T02:19:24.127Z,1.48
2022-09-26T02:24:16.749Z,1.38
2022-09-26T02:26:43.145Z,1.67
2022-09-26T02:29:09.840Z,1.40
2022-09-26T02:31:38.595Z,1.40
2022-09-26T02:34:05.154Z,1.10
2022-09-26T02:36:34.752Z,0.98
2022-09-26T02:39:01.595Z,1.20
2022-09-26T02:41:29.391Z,1.23
2022-09-26T02:44:10.107Z,1.05
2022-09-26T02:46:56.768Z,1.10
2022-09-26T02:49:45.122Z,0.98
2022-09-26T02:52:14.558Z,1.70
2022-09-26T02:57:23.435Z,1.42
2022-09-26T03:00:04.933Z,1.00
2022-09-26T03:02:54.299Z,2.28
2022-09-26T03:07:50.119Z,1.00
2022-09-26T03:10:16.874Z,1.20
2022-09-26T03:12:44.571Z,1.30
2022-09-26T03:15:11.952Z,1.15
2022-09-26T03:17:39.802Z,1.15
2022-09-26T03:20:11.139Z,1.10
2022-09-26T03:22:38.689Z,1.00
2022-09-26T03:25:06.446Z,1.00
2022-09-26T03:27:34.584Z,0.90
2022-09-26T03:30:01.224Z,1.10
2022-09-26T03:32:29.626Z,1.08
2022-09-26T03:34:56.701Z,1.30
2022-09-26T03:37:23.043Z,0.85
2022-09-26T03:39:49.408Z,0.90
2022-09-26T03:42:16.731Z,0.95
2022-09-26T03:44:44.010Z,1.05
2022-09-26T03:47:10.524Z,0.80
2022-09-26T03:49:36.860Z,1.00
2022-09-26T03:52:03.763Z,1.15
2022-09-26T03:54:30.338Z,1.02
2022-09-26T03:56:56.634Z,1.00
2022-09-26T03:59:22.979Z,1.05
2022-09-26T04:01:49.574Z,1.30
2022-09-26T04:04:16.247Z,1.10
2022-09-26T04:06:44.906Z,0.90
2022-09-26T04:09:16.514Z,1.30
2022-09-26T04:11:43.284Z,0.77
2022-09-26T04:14:09.795Z,1.00
2022-09-26T04:16:37.405Z,0.73
2022-09-26T04:19:04.132Z,0.85
2022-09-26T04:21:31.104Z,1.15
2022-09-26T04:23:57.625Z,1.25
2022-09-26T04:26:24.738Z,1.50
2022-09-26T04:28:54.564Z,2.80
2022-09-26T04:31:21.955Z,5.10
2022-09-26T04:33:48.370Z,5.20
2022-09-26T04:36:15.270Z,4.60
2022-09-26T04:38:41.618Z,4.05
2022-09-26T04:41:14.445Z,2.90
2022-09-26T04:43:41.075Z,2.13
2022-09-26T04:46:11.860Z,2.00
2022-09-26T04:48:38.504Z,1.83
2022-09-26T04:51:14.874Z,1.83
2022-09-26T04:53:41.637Z,1.77
2022-09-26T04:56:09.380Z,1.40
2022-09-26T04:58:37.963Z,1.65
2022-09-26T05:01:05.232Z,1.30
2022-09-26T05:03:32.052Z,1.65
2022-09-26T05:05:59.053Z,1.85
2022-09-26T05:08:26.146Z,1.70
2022-09-26T05:10:53.227Z,1.58
2022-09-26T05:13:19.554Z,2.15
2022-09-26T05:15:45.896Z,1.85
2022-09-26T05:18:12.253Z,1.42
2022-09-26T05:20:38.994Z,1.27
2022-09-26T05:23:06.954Z,1.95
2022-09-26T05:25:56.702Z,1.27
2022-09-26T05:28:24.009Z,1.15
2022-09-26T05:30:51.784Z,1.20
2022-09-26T05:33:21.723Z,1.38
2022-09-26T05:35:54.772Z,1.90
2022-09-26T05:38:21.131Z,2.15
2022-09-26T05:40:56.784Z,2.30
2022-09-26T05:43:33.398Z,1.50
2022-09-26T05:46:00.975Z,1.30
2022-09-26T05:48:27.616Z,1.25
2022-09-26T05:50:53.944Z,1.08
2022-09-26T05:53:20.408Z,1.55
2022-09-26T05:55:50.489Z,1.00
2022-09-26T05:58:18.749Z,0.90
2022-09-26T06:00:48.102Z,0.93
2022-09-26T06:05:42.317Z,1.23
2022-09-26T06:08:11.334Z,1.30
2022-09-26T06:10:38.922Z,0.90
2022-09-26T06:13:05.601Z,1.15
2022-09-26T06:15:31.985Z,1.20
2022-09-26T06:18:04.472Z,0.90
2022-09-26T06:20:34.261Z,0.95
2022-09-26T06:23:01.832Z,0.73
2022-09-26T06:25:29.274Z,0.95
2022-09-26T06:27:59.955Z,1.75
2022-09-26T06:30:27.110Z,0.63
2022-09-26T06:32:53.535Z,0.80
2022-09-26T06:35:20.682Z,1.00
2022-09-26T06:37:47.158Z,0.60
2022-09-26T06:40:13.684Z,1.05
2022-09-26T06:42:40.898Z,0.70
2022-09-26T06:45:08.201Z,0.75
2022-09-26T06:47:34.712Z,1.08
2022-09-26T06:50:01.381Z,0.80
2022-09-26T06:52:34.590Z,1.00
2022-09-26T06:55:02.418Z,0.82
2022-09-26T06:57:30.068Z,0.82
2022-09-26T06:59:56.614Z,0.90
2022-09-26T07:02:23.946Z,0.75
2022-09-26T07:04:50.536Z,1.10
2022-09-26T07:07:16.848Z,0.77
2022-09-26T07:09:43.212Z,0.70
2022-09-26T07:12:16.937Z,1.10
2022-09-26T07:14:48.920Z,0.60
2022-09-26T07:17:19.123Z,0.63
2022-09-26T07:19:46.702Z,1.00
2022-09-26T07:22:15.363Z,1.25
2022-09-26T07:24:45.038Z,0.90
2022-09-26T07:27:11.402Z,0.80
2022-09-26T07:29:37.721Z,0.75
2022-09-26T07:32:04.076Z,1.00
2022-09-26T07:34:31.636Z,0.70
2022-09-26T07:36:59.525Z,0.63
2022-09-26T07:39:27.573Z,0.75
2022-09-26T07:41:54.058Z,0.77
2022-09-26T07:47:25.466Z,1.05
2022-09-26T07:50:10.502Z,0.95
2022-09-26T07:52:37.484Z,1.00
2022-09-26T07:55:04.508Z,0.70
2022-09-26T07:57:35.303Z,0.82
2022-09-26T08:00:09.685Z,0.68
2022-09-26T08:02:36.286Z,0.90
2022-09-26T08:05:06.143Z,0.88
2022-09-26T08:07:33.339Z,0.80
2022-09-26T08:10:01.738Z,0.80
2022-09-26T08:12:28.387Z,1.03
2022-09-26T08:14:54.963Z,0.80
2022-09-26T08:17:21.683Z,0.80
2022-09-26T08:19:48.228Z,0.80
2022-09-26T08:22:14.611Z,0.93
2022-09-26T08:24:41.204Z,0.90
2022-09-26T08:27:07.744Z,0.80
2022-09-26T08:29:35.051Z,1.02
2022-09-26T08:32:03.142Z,1.08
2022-09-26T08:34:32.070Z,1.02
2022-09-26T08:36:58.612Z,1.00
2022-09-26T08:39:24.942Z,0.80
2022-09-26T08:42:00.411Z,1.10
2022-09-26T08:44:45.662Z,0.85
2022-09-26T08:47:30.323Z,0.80
2022-09-26T08:49:56.620Z,1.00
2022-09-26T08:52:26.042Z,0.90
2022-09-26T08:54:53.673Z,0.90
2022-09-26T08:57:25.775Z,1.00
2022-09-26T08:59:53.520Z,0.95
2022-09-26T09:02:30.530Z,0.90
2022-09-26T09:05:06.484Z,1.20
2022-09-26T09:07:32.834Z,0.93
2022-09-26T09:10:14.221Z,0.70
2022-09-26T09:12:51.248Z,0.80
2022-09-26T09:15:47.109Z,0.80
2022-09-26T09:18:22.718Z,1.00
2022-09-26T09:20:57.336Z,0.80
2022-09-26T09:23:31.475Z,0.90
2022-09-26T09:29:10.334Z,1.10
2022-09-26T09:31:40.227Z,0.88
2022-09-26T09:34:11.431Z,1.20
2022-09-26T09:36:44.845Z,1.10
2022-09-26T09:39:16.571Z,1.10
2022-09-26T09:41:46.781Z,0.90
2022-09-26T09:44:43.079Z,1.00
2022-09-26T09:49:40.101Z,0.90
2022-09-26T09:52:21.409Z,1.20
2022-09-26T09:54:53.357Z,0.80
2022-09-26T09:57:25.830Z,1.13
2022-09-26T10:00:02.246Z,0.80
2022-09-26T10:02:47.590Z,1.02
2022-09-26T10:05:17.058Z,1.08
2022-09-26T10:07:45.072Z,1.20
2022-09-26T10:10:12.954Z,0.90
2022-09-26T10:12:40.891Z,1.00
2022-09-26T10:15:19.739Z,1.00
2022-09-26T10:20:53.979Z,1.05
2022-09-26T10:23:31.607Z,1.10
2022-09-26T10:26:03.382Z,0.70
2022-09-26T10:28:31.300Z,0.95
2022-09-26T10:31:06.731Z,1.17
2022-09-26T10:33:35.471Z,1.27
2022-09-26T10:36:08.953Z,1.00
2022-09-26T10:38:55.342Z,1.10
2022-09-26T10:41:23.094Z,1.10
2022-09-26T10:43:54.006Z,1.08
2022-09-26T10:46:21.762Z,1.05
2022-09-26T10:48:55.376Z,0.90
2022-09-26T10:51:45.394Z,1.00
2022-09-26T10:54:14.797Z,1.00
2022-09-26T10:56:45.947Z,1.02
2022-09-26T10:59:13.646Z,1.00
2022-09-26T11:01:44.479Z,1.38
2022-09-26T11:04:13.066Z,1.00
2022-09-26T11:06:40.826Z,1.00
2022-09-26T11:09:07.486Z,1.05
2022-09-26T11:11:36.718Z,1.00
2022-09-26T11:14:08.430Z,1.08
2022-09-26T11:16:39.446Z,1.75
2022-09-26T11:19:10.085Z,0.90
2022-09-26T11:21:41.310Z,1.23
2022-09-26T11:24:23.132Z,1.17
2022-09-26T11:27:11.975Z,1.05
2022-09-26T11:29:38.263Z,1.10
2022-09-26T11:32:05.322Z,1.10
2022-09-26T11:34:32.953Z,1.10
2022-09-26T11:37:26.832Z,1.15
2022-09-26T11:40:12.045Z,1.00
2022-09-26T11:42:54.862Z,1.20
2022-09-26T11:45:21.209Z,1.02
2022-09-26T11:47:55.975Z,1.02
2022-09-26T11:50:41.104Z,1.20
2022-09-26T11:53:14.287Z,1.17
2022-09-26T11:56:01.073Z,1.10
2022-09-26T11:58:50.551Z,1.00
2022-09-26T12:01:43.258Z,1.20
2022-09-26T12:04:16.389Z,1.20
2022-09-26T12:06:55.074Z,0.90
2022-09-26T12:09:31.547Z,1.00
2022-09-26T12:12:11.006Z,1.05
2022-09-26T12:14:40.567Z,1.25
2022-09-26T12:17:17.565Z,1.00
2022-09-26T12:19:51.370Z,1.10
2022-09-26T12:22:36.498Z,1.15
2022-09-26T12:25:07.330Z,1.50
2022-09-26T12:27:52.915Z,1.00
2022-09-26T12:30:26.800Z,0.85
2022-09-26T12:33:11.985Z,1.10
2022-09-26T12:35:45.280Z,1.48
2022-09-26T12:38:24.286Z,1.35
2022-09-26T12:46:09.889Z,0.80
2022-09-26T12:48:36.463Z,0.98
2022-09-26T12:51:05.818Z,1.10
2022-09-26T12:53:41.328Z,1.00
2022-09-26T12:56:17.744Z,0.88
2022-09-26T12:58:44.057Z,1.10
2022-09-26T13:01:12.231Z,1.23
2022-09-26T13:03:49.946Z,0.93
2022-09-26T13:06:26.145Z,0.90
2022-09-26T13:08:58.649Z,1.30
2022-09-26T13:12:04.133Z,0.90
2022-09-26T13:14:55.177Z,1.00
2022-09-26T13:17:24.538Z,1.00
2022-09-26T13:19:54.052Z,0.90
2022-09-26T13:22:21.122Z,1.15
2022-09-26T13:24:47.559Z,1.13
2022-09-26T13:27:17.677Z,1.35
2022-09-26T13:29:47.778Z,1.10
2022-09-26T13:32:23.543Z,1.20
2022-09-26T13:34:52.744Z,1.10
2022-09-26T13:39:52.185Z,1.20
2022-09-26T13:42:20.916Z,1.27
2022-09-26T13:45:16.527Z,1.10
2022-09-26T13:48:07.739Z,1.08
2022-09-26T13:50:40.319Z,1.25
2022-09-26T13:53:12.904Z,1.00
2022-09-26T13:55:39.258Z,1.15
2022-09-26T13:58:18.936Z,1.30
2022-09-26T14:00:55.251Z,1.38
2022-09-26T14:03:23.280Z,1.27
2022-09-26T14:05:51.207Z,1.38
2022-09-26T14:08:49.942Z,1.10
2022-09-26T14:11:19.077Z,1.20
2022-09-26T14:13:46.414Z,1.38
2022-09-26T14:16:28.241Z,1.30
2022-09-26T14:19:09.447Z,1.40
2022-09-26T14:21:38.764Z,1.50
2022-09-26T14:26:41.541Z,0.93
2022-09-26T14:29:24.966Z,1.33
2022-09-26T14:32:15.134Z,1.05
2022-09-26T14:34:43.478Z,0.93
2022-09-26T14:37:22.711Z,1.00
2022-09-26T14:42:27.048Z,1.08
2022-09-26T14:44:58.411Z,0.90
2022-09-26T14:47:25.878Z,0.80
2022-09-26T14:49:53.514Z,1.00
2022-09-26T14:52:20.410Z,0.90
2022-09-26T14:54:47.275Z,1.00
2022-09-26T14:57:21.029Z,0.90
2022-09-26T14:59:47.485Z,0.95
2022-09-26T15:02:14.322Z,0.90
2022-09-26T15:04:45.978Z,0.90
2022-09-26T15:07:16.137Z,0.77
2022-09-26T15:09:46.926Z,0.93
2022-09-26T15:12:18.115Z,1.33
2022-09-26T15:14:48.143Z,0.90
2022-09-26T15:17:20.088Z,0.80
2022-09-26T15:19:49.261Z,0.90
2022-09-26T15:22:18.176Z,1.00
2022-09-26T15:24:44.559Z,0.90
2022-09-26T15:27:29.105Z,1.00
2022-09-26T15:30:01.554Z,0.90
2022-09-26T15:32:31.818Z,1.20
2022-09-26T15:34:59.813Z,0.90
2022-09-26T15:37:30.114Z,1.10
2022-09-26T15:39:57.260Z,1.20
2022-09-26T15:42:46.941Z,1.27
2022-09-26T15:45:16.034Z,0.80
2022-09-26T15:47:43.225Z,1.40
2022-09-26T15:50:14.733Z,4.20
2022-09-26T15:52:44.456Z,5.43
2022-09-26T15:55:21.643Z,4.93
2022-09-26T15:57:49.704Z,3.17
2022-09-26T16:00:16.366Z,2.08
2022-09-26T16:02:43.078Z,1.80
2022-09-26T16:05:12.860Z,1.70
2022-09-26T16:07:41.575Z,2.55
2022-09-26T16:10:21.246Z,2.10
2022-09-26T16:12:47.625Z,1.98
2022-09-26T16:15:17.055Z,2.10
2022-09-26T16:20:15.718Z,2.83
2022-09-26T16:22:45.515Z,7.53
2022-09-26T16:25:18.427Z,5.25
2022-09-26T16:28:05.172Z,4.38
2022-09-26T16:30:31.507Z,2.38
2022-09-26T16:33:07.554Z,1.85
2022-09-26T16:35:35.623Z,1.20
2022-09-26T16:38:20.777Z,1.30
2022-09-26T16:40:51.239Z,1.23
2022-09-26T16:43:26.919Z,2.35
2022-09-26T16:45:56.748Z,2.20
2022-09-26T16:48:34.126Z,2.80
2022-09-26T16:51:14.602Z,3.10
2022-09-26T16:53:45.601Z,3.00
2022-09-26T16:56:12.742Z,1.95
2022-09-26T16:58:41.043Z,2.00
2022-09-26T17:01:27.748Z,2.08
2022-09-26T17:03:55.908Z,2.33
2022-09-26T17:06:22.423Z,2.10
2022-09-26T17:08:49.260Z,2.20
2022-09-26T17:11:16.197Z,1.90
2022-09-26T17:13:43.802Z,1.80
2022-09-26T17:16:10.712Z,1.85
2022-09-26T17:18:37.434Z,2.70
2022-09-26T17:21:03.982Z,1.55
2022-09-26T17:23:41.023Z,1.70
2022-09-26T17:26:11.156Z,2.38
2022-09-26T17:28:39.809Z,1.25
2022-09-26T17:31:07.688Z,1.60
2022-09-26T17:33:36.575Z,1.30
2022-09-26T17:36:03.293Z,1.40
2022-09-26T17:38:30.291Z,1.38
2022-09-26T17:40:56.806Z,1.58
2022-09-26T17:43:23.159Z,2.40
2022-09-26T17:45:51.232Z,2.75
2022-09-26T17:48:28.215Z,2.50
2022-09-26T17:50:55.641Z,3.05
2022-09-26T17:53:23.283Z,2.33
2022-09-26T17:55:50.489Z,1.90
2022-09-26T17:58:18.028Z,1.42
2022-09-26T18:00:46.427Z,1.50
2022-09-26T18:03:23.682Z,1.70
2022-09-26T18:05:50.200Z,1.60
2022-09-26T18:08:20.805Z,1.60
2022-09-26T18:10:52.612Z,1.63
2022-09-26T18:13:22.615Z,1.80
2022-09-26T18:15:49.030Z,1.98
2022-09-26T18:18:18.454Z,2.25
2022-09-26T18:20:49.326Z,2.08
2022-09-26T18:23:19.238Z,1.98
2022-09-26T18:25:47.385Z,2.20
2022-09-26T18:28:16.029Z,2.42
2022-09-26T18:30:44.387Z,2.70
2022-09-26T18:33:11.543Z,3.38
2022-09-26T18:35:37.877Z,2.35
2022-09-26T18:38:04.231Z,2.05
2022-09-26T18:40:30.693Z,2.50
2022-09-26T18:42:57.931Z,1.90
2022-09-26T18:45:28.518Z,1.55
2022-09-26T18:47:54.992Z,2.00
2022-09-26T18:50:23.582Z,2.10
2022-09-26T18:52:50.594Z,2.10
2022-09-26T18:55:36.877Z,1.80
2022-09-26T18:58:22.275Z,1.90
2022-09-26T19:00:49.145Z,4.28
2022-09-26T19:03:16.204Z,2.15
2022-09-26T19:05:42.687Z,2.20
2022-09-26T19:08:22.001Z,1.98
2022-09-26T19:13:14.550Z,1.80
2022-09-26T19:15:40.894Z,1.90
2022-09-26T19:18:07.361Z,1.63
2022-09-26T19:20:33.681Z,2.00
2022-09-26T19:22:59.983Z,1.90
2022-09-26T19:25:26.422Z,1.95
2022-09-26T19:27:53.443Z,1.88
2022-09-26T19:30:24.019Z,1.85
2022-09-26T19:32:51.826Z,2.22
2022-09-26T19:35:26.727Z,1.70
2022-09-26T19:37:53.191Z,1.88
2022-09-26T19:40:20.590Z,1.67
2022-09-26T19:42:46.934Z,2.05
2022-09-26T19:45:13.962Z,1.85
2022-09-26T19:47:43.123Z,1.90
2022-09-26T19:50:17.060Z,1.92
2022-09-26T19:52:43.615Z,1.58
2022-09-26T19:55:17.351Z,2.00
2022-09-26T19:57:43.701Z,1.65
2022-09-26T20:00:13.204Z,1.60
2022-09-26T20:02:39.977Z,1.90
2022-09-26T20:05:19.165Z,1.77
2022-09-26T20:07:48.132Z,1.90
2022-09-26T20:10:15.809Z,1.73
2022-09-26T20:12:43.114Z,1.85
2022-09-26T20:15:09.585Z,1.80
2022-09-26T20:17:37.132Z,2.05
2022-09-26T20:20:04.661Z,1.55
2022-09-26T20:22:31.714Z,1.85
2022-09-26T20:24:58.215Z,2.00
2022-09-26T20:27:26.244Z,1.90
2022-09-26T20:30:11.474Z,1.55
2022-09-26T20:32:38.175Z,1.92
2022-09-26T20:35:05.023Z,1.60
2022-09-26T20:37:32.516Z,2.00
2022-09-26T20:40:00.080Z,2.10
2022-09-26T20:42:29.286Z,1.40
2022-09-26T20:44:56.166Z,1.50
2022-09-26T20:47:22.979Z,1.73
2022-09-26T20:49:55.331Z,1.25
2022-09-26T20:52:22.826Z,1.40
2022-09-26T20:54:49.259Z,1.27
2022-09-26T20:57:17.271Z,1.23
2022-09-26T20:59:43.812Z,1.30
2022-09-26T21:02:23.125Z,1.35
2022-09-26T21:07:15.983Z,1.17
2022-09-26T21:09:42.421Z,1.08
2022-09-26T21:12:12.815Z,0.93
2022-09-26T21:14:39.157Z,1.05
2022-09-26T21:17:08.099Z,1.20
2022-09-26T21:19:34.566Z,1.17
2022-09-26T21:22:02.706Z,1.30
2022-09-26T21:24:30.876Z,1.10
2022-09-26T21:26:57.634Z,1.23
2022-09-26T21:29:24.034Z,1.23
2022-09-26T21:31:51.525Z,1.52
2022-09-26T21:34:26.276Z,1.40
2022-09-26T21:36:54.341Z,1.65
2022-09-26T21:39:21.560Z,1.40
2022-09-26T21:41:48.792Z,1.20
2022-09-26T21:44:21.366Z,1.25
2022-09-26T21:46:47.775Z,1.23
2022-09-26T21:49:14.163Z,1.33
2022-09-26T21:51:40.710Z,1.20
2022-09-26T21:54:09.480Z,1.23
2022-09-26T21:56:43.239Z,1.65
2022-09-26T21:59:09.692Z,1.50
2022-09-26T22:01:36.128Z,1.38
2022-09-26T22:04:02.541Z,1.70
2022-09-26T22:06:28.840Z,1.70
2022-09-26T22:08:55.171Z,1.38
2022-09-26T22:11:22.066Z,1.00
2022-09-26T22:13:48.395Z,1.20
2022-09-26T22:16:15.370Z,1.30
2022-09-26T22:18:41.792Z,1.58
2022-09-26T22:21:09.123Z,1.30
2022-09-26T22:23:36.028Z,1.30
2022-09-26T22:26:02.475Z,1.52
2022-09-26T22:28:29.028Z,1.40
2022-09-26T22:30:55.714Z,1.27
2022-09-26T22:33:22.611Z,1.20
2022-09-26T22:35:49.858Z,1.80
2022-09-26T22:38:16.211Z,1.50
2022-09-26T22:40:42.793Z,1.40
2022-09-26T22:43:09.147Z,1.60
2022-09-26T22:45:35.522Z,1.35
2022-09-26T22:48:02.060Z,1.17
2022-09-26T22:50:28.393Z,1.45
2022-09-26T22:52:54.708Z,1.33
2022-09-26T22:55:21.043Z,1.60
2022-09-26T22:57:49.607Z,1.38
2022-09-26T23:00:15.948Z,1.60
2022-09-26T23:02:42.624Z,1.23
2022-09-26T23:05:09.189Z,1.60
2022-09-26T23:07:35.692Z,1.40
2022-09-26T23:10:02.166Z,1.30
2022-09-26T23:12:28.513Z,1.20
2022-09-26T23:14:54.809Z,1.45
2022-09-26T23:17:21.121Z,1.35
2022-09-26T23:19:47.531Z,1.08
2022-09-26T23:22:14.103Z,1.05
2022-09-26T23:24:40.398Z,1.30
2022-09-26T23:27:06.715Z,1.10
2022-09-26T23:29:33.130Z,1.40
2022-09-26T23:31:59.449Z,1.20
2022-09-26T23:34:26.092Z,1.30
2022-09-26T23:36:52.476Z,1.40
2022-09-26T23:39:18.919Z,1.20
2022-09-26T23:41:45.242Z,1.40
2022-09-26T23:44:11.658Z,1.15
2022-09-26T23:46:39.016Z,1.30
2022-09-26T23:49:05.423Z,1.33
2022-09-26T23:51:31.745Z,1.40
2022-09-26T23:53:58.099Z,1.40
2022-09-26T23:56:24.391Z,1.15
2022-09-26T23:58:50.747Z,1.30
